ADDS METAR Data INFO
IDs: Format: Raw Decoded Include TAF

Data at: 1242 UTC 19 Oct 2017

KBGE 191235Z AUTO 03004KT 10SM CLR 15/13 A3023 RMK AO2
KBGE 191215Z AUTO 00000KT 10SM CLR 13/13 A3022 RMK AO2
KBGE 191155Z AUTO 00000KT 10SM CLR 13/12 A3022 RMK AO2
KBGE 191135Z AUTO 00000KT 10SM CLR 13/12 A3022 RMK AO2
KBGE 191115Z AUTO 00000KT 10SM CLR 13/12 A3021 RMK AO2
KBGE 191055Z AUTO 36003KT 10SM CLR 14/12 A3021 RMK AO2
KBGE 191035Z AUTO 00000KT 10SM CLR 14/12 A3020 RMK AO2
KBGE 191015Z AUTO 05003KT 10SM CLR 13/12 A3020 RMK AO2
KBGE 190955Z AUTO 00000KT 10SM CLR 13/12 A3020 RMK AO2
KBGE 190935Z AUTO 00000KT 10SM CLR 14/12 A3020 RMK AO2
KBGE 190915Z AUTO 00000KT 10SM CLR 14/12 A3020 RMK AO2
KBGE 190855Z AUTO 00000KT 10SM CLR 14/12 A3020 RMK AO2
KBGE 190835Z AUTO 00000KT 10SM CLR 14/12 A3019 RMK AO2
KBGE 190815Z AUTO 00000KT 10SM CLR 15/12 A3019 RMK AO2
KBGE 190755Z AUTO 00000KT 10SM CLR 15/12 A3020 RMK AO2
KBGE 190735Z AUTO 00000KT 10SM CLR 15/12 A3019 RMK AO2
KBGE 190715Z AUTO 05003KT 10SM CLR 15/13 A3020 RMK AO2
KBGE 190655Z AUTO 08003KT 10SM CLR 15/13 A3020 RMK AO2
KBGE 190635Z AUTO 05004KT 10SM CLR 16/13 A3021 RMK AO2
KBGE 190615Z AUTO 05003KT 10SM CLR 16/13 A3021 RMK AO2
KBGE 190555Z AUTO 07003KT 10SM CLR 16/13 A3021 RMK AO2
KBGE 190535Z AUTO 00000KT 10SM CLR 16/13 A3022 RMK AO2
KBGE 190515Z AUTO 07003KT 10SM CLR 16/13 A3022 RMK AO2
KBGE 190455Z AUTO 06005KT 10SM CLR 17/13 A3022 RMK AO2
KBGE 190435Z AUTO 06006KT 10SM CLR 18/13 A3022 RMK AO2
KBGE 190415Z AUTO 06006KT 10SM CLR 18/13 A3023 RMK AO2
KBGE 190355Z AUTO 04006KT 10SM CLR 19/14 A3023 RMK AO2
KBGE 190335Z AUTO 04006KT 10SM CLR 19/15 A3023 RMK AO2
KBGE 190315Z AUTO 05005KT 10SM CLR 19/15 A3023 RMK AO2
KBGE 190255Z AUTO 04006KT 10SM CLR 20/15 A3023 RMK AO2
KBGE 190235Z AUTO 04006KT 10SM CLR 20/15 A3023 RMK AO2
KBGE 190215Z AUTO 03005KT 10SM CLR 20/15 A3023 RMK AO2
KBGE 190155Z AUTO 05005KT 10SM CLR 20/16 A3022 RMK AO2
KBGE 190135Z AUTO 05006KT 10SM CLR 21/16 A3022 RMK AO2
KBGE 190115Z AUTO 05006KT 10SM SCT046 21/16 A3021 RMK AO2
KBGE 190055Z AUTO 05006KT 10SM SCT046 22/16 A3021 RMK AO2
KBGE 190035Z AUTO 03004KT 10SM BKN046 22/16 A3021 RMK AO2
KBGE 190015Z AUTO 02004KT 10SM SCT048 22/16 A3020 RMK AO2
KBGE 182355Z AUTO 03004KT 10SM SCT048 22/16 A3019 RMK AO2
KBGE 182335Z AUTO 05005KT 10SM CLR 22/16 A3019 RMK AO2
KBGE 182315Z AUTO 05005KT 10SM CLR 22/16 A3018 RMK AO2
KBGE 182255Z AUTO 06005KT 10SM CLR 24/16 A3018 RMK AO2
KBGE 182235Z AUTO 07007KT 10SM CLR 25/16 A3018 RMK AO2
KBGE 182215Z AUTO 07008KT 10SM CLR 26/17 A3018 RMK AO2
KBGE 182155Z AUTO 07009KT 10SM CLR 26/17 A3018 RMK AO2
KBGE 182135Z AUTO 06006KT 10SM CLR 27/16 A3017 RMK AO2
KBGE 182115Z AUTO 09005KT 10SM CLR 27/17 A3017 RMK AO2
KBGE 182055Z AUTO 05006KT 10SM CLR 27/17 A3017 RMK AO2
KBGE 182035Z AUTO 07007KT 050V120 10SM CLR 27/17 A3017 RMK AO2
KBGE 182015Z AUTO 05007KT 10SM CLR 27/17 A3017 RMK AO2
KBGE 181955Z AUTO 05004G14KT 10SM CLR 27/17 A3018 RMK AO2
KBGE 181935Z AUTO 02005G08KT 10SM CLR 27/16 A3018 RMK AO2
KBGE 181915Z AUTO 04006KT 10SM CLR 27/17 A3018 RMK AO2
KBGE 181855Z AUTO 08008KT 10SM CLR 26/16 A3019 RMK AO2
KBGE 181835Z AUTO 05005KT 10SM CLR 26/16 A3019 RMK AO2
KBGE 181815Z AUTO 05005G14KT 10SM CLR 26/16 A3020 RMK AO2
KBGE 181755Z AUTO 07008G14KT 10SM CLR 26/16 A3021 RMK AO2
KBGE 181735Z AUTO 10005KT 10SM CLR 26/16 A3023 RMK AO2
KBGE 181715Z AUTO 06010KT 10SM CLR 25/15 A3024 RMK AO2
KBGE 181655Z AUTO 08008G14KT 10SM CLR 24/15 A3025 RMK AO2
KBGE 181635Z AUTO 07009G14KT 10SM CLR 23/15 A3025 RMK AO2
KBGE 181615Z AUTO 06010G14KT 10SM SCT038 23/15 A3026 RMK AO2
KBGE 181555Z AUTO 07010KT 10SM CLR 22/14 A3027 RMK AO2
KBGE 181535Z AUTO 05009KT 10SM CLR 21/13 A3027 RMK AO2
KBGE 181515Z AUTO 05010G14KT 10SM CLR 21/13 A3027 RMK AO2
KBGE 181455Z AUTO 07010KT 10SM CLR 20/12 A3027 RMK AO2
KBGE 181435Z AUTO 07009G14KT 10SM CLR 19/12 A3027 RMK AO2
KBGE 181415Z AUTO 08009KT 10SM CLR 18/11 A3027 RMK AO2
KBGE 181355Z AUTO 06010G16KT 10SM CLR 17/11 A3026 RMK AO2
KBGE 181335Z AUTO 06008KT 10SM CLR 16/10 A3026 RMK AO2
KBGE 181315Z AUTO 06010KT 10SM CLR 15/10 A3026 RMK AO2
KBGE 181255Z AUTO 06008KT 10SM CLR 14/10 A3025 RMK AO2
KBGE 181235Z AUTO 04006KT 10SM CLR 13/09 A3025 RMK AO2
KBGE 181215Z AUTO 04005KT 10SM CLR 12/09 A3024 RMK AO2
KBGE 181155Z AUTO 04004KT 10SM CLR 11/08 A3023 RMK AO2
KBGE 181135Z AUTO 05006KT 10SM CLR 11/08 A3023 RMK AO2
KBGE 181115Z AUTO 05005KT 10SM CLR 11/08 A3022 RMK AO2
KBGE 181055Z AUTO 06006KT 10SM CLR 11/08 A3022 RMK AO2
KBGE 181035Z AUTO 05006KT 10SM CLR 11/08 A3022 RMK AO2
KBGE 181015Z AUTO 05007KT 10SM CLR 12/08 A3022 RMK AO2
KBGE 180955Z AUTO 05006KT 10SM CLR 11/08 A3021 RMK AO2
KBGE 180935Z AUTO 05005KT 10SM CLR 12/08 A3021 RMK AO2
KBGE 180915Z AUTO 05006KT 10SM CLR 11/08 A3020 RMK AO2
KBGE 180855Z AUTO 05005KT 10SM CLR 12/08 A3021 RMK AO2
KBGE 180835Z AUTO 05004KT 10SM CLR 11/08 A3021 RMK AO2
KBGE 180815Z AUTO 06005KT 10SM CLR 11/08 A3020 RMK AO2
KBGE 180755Z AUTO 05004KT 10SM CLR 12/08 A3021 RMK AO2
KBGE 180735Z AUTO 04005KT 10SM CLR 12/08 A3021 RMK AO2
KBGE 180715Z AUTO 04004KT 10SM CLR 12/08 A3021 RMK AO2
KBGE 180655Z AUTO 04004KT 10SM CLR 12/08 A3021 RMK AO2
KBGE 180635Z AUTO 04004KT 10SM CLR 12/08 A3021 RMK AO2
KBGE 180615Z AUTO 05003KT 10SM CLR 12/08 A3022 RMK AO2
KBGE 180555Z AUTO 06004KT 10SM CLR 11/09 A3022 RMK AO2
KBGE 180535Z AUTO 07004KT 10SM CLR 11/09 A3022 RMK AO2
KBGE 180515Z AUTO 07004KT 10SM CLR 12/09 A3022 RMK AO2
KBGE 180455Z AUTO 06003KT 10SM CLR 12/09 A3023 RMK AO2
KBGE 180435Z AUTO 05004KT 10SM CLR 13/08 A3022 RMK AO2
KBGE 180415Z AUTO 05004KT 10SM CLR 13/08 A3023 RMK AO2
KBGE 180355Z AUTO 05004KT 10SM CLR 13/09 A3023 RMK AO2
KBGE 180335Z AUTO 06003KT 10SM CLR 13/10 A3023 RMK AO2
KBGE 180315Z AUTO 06005KT 10SM CLR 13/10 A3024 RMK AO2
KBGE 180255Z AUTO 07004KT 10SM CLR 14/10 A3023 RMK AO2
KBGE 180235Z AUTO 06004KT 10SM CLR 15/09 A3023 RMK AO2
KBGE 180215Z AUTO 06005KT 10SM CLR 15/10 A3023 RMK AO2
KBGE 180155Z AUTO 06005KT 10SM CLR 16/09 A3022 RMK AO2
KBGE 180135Z AUTO 05004KT 10SM CLR 17/09 A3021 RMK AO2
KBGE 180115Z AUTO 05005KT 10SM CLR 17/08 A3021 RMK AO2
KBGE 180055Z AUTO 05005KT 10SM CLR 17/09 A3020 RMK AO2